Time;durP1;ratioP1;P1;durP2;ratioP2;P2;SDS_P1;SDS_P2;PMS_P1;PMS_P2;Temp;Humidity;BMP_temperature;BMP_pressure;BME280_temperature;BME280_humidity;BME280_pressure;Samples;Min_cycle;Max_cycle;Signal;HPM_P1;HPM_P2
2021/03/19 00:01:23;;;;;;;14.23;9.77;;;;;;;;;;5025761;28;20602;-69
2021/03/19 00:03:48;;;;;;;15.27;9.67;;;;;;;;;;5035496;28;22272;-69
2021/03/19 00:06:14;;;;;;;13.63;9.60;;;;;;;;;;5026477;28;20209;-69
2021/03/19 00:08:39;;;;;;;17.23;10.03;;;;;;;;;;5035306;28;20186;-69
2021/03/19 00:11:05;;;;;;;18.10;10.20;;;;;;;;;;5027243;28;20186;-69
2021/03/19 00:13:30;;;;;;;17.03;9.67;;;;;;;;;;5035864;28;20215;-69
2021/03/19 00:15:55;;;;;;;17.47;10.27;;;;;;;;;;5026282;28;20252;-68
2021/03/19 00:18:21;;;;;;;15.17;9.43;;;;;;;;;;5037198;28;20177;-68
2021/03/19 00:20:47;;;;;;;15.77;10.53;;;;;;;;;;5023321;28;20312;-69
2021/03/19 00:23:13;;;;;;;20.63;11.10;;;;;;;;;;5035466;28;20247;-69
2021/03/19 00:25:40;;;;;;;21.17;11.40;;;;;;;;;;5033219;28;20212;-69
2021/03/19 00:28:06;;;;;;;19.50;10.30;;;;;;;;;;5026314;28;20200;-68
2021/03/19 00:30:33;;;;;;;20.20;10.73;;;;;;;;;;5032904;28;20542;-68
2021/03/19 00:32:59;;;;;;;22.20;10.87;;;;;;;;;;5028028;28;20660;-69
2021/03/19 00:35:25;;;;;;;24.30;11.97;;;;;;;;;;5027331;28;20276;-68
2021/03/19 00:37:50;;;;;;;18.47;10.13;;;;;;;;;;5027619;28;20199;-68
2021/03/19 00:40:16;;;;;;;18.90;10.97;;;;;;;;;;5030815;28;20521;-68
2021/03/19 00:42:42;;;;;;;19.80;11.87;;;;;;;;;;5024447;28;20315;-68
2021/03/19 00:45:10;;;;;;;17.63;11.00;;;;;;;;;;5030955;28;20229;-69
2021/03/19 00:47:36;;;;;;;25.97;12.33;;;;;;;;;;5025460;28;20664;-68
2021/03/19 00:50:03;;;;;;;22.07;11.50;;;;;;;;;;5035074;28;20276;-69
2021/03/19 00:52:29;;;;;;;19.83;11.60;;;;;;;;;;5028496;28;20735;-69
2021/03/19 00:54:54;;;;;;;22.43;11.43;;;;;;;;;;5034711;28;20188;-68
2021/03/19 00:57:19;;;;;;;29.23;12.40;;;;;;;;;;5035520;28;20647;-68
2021/03/19 00:59:45;;;;;;;22.57;11.83;;;;;;;;;;5026492;28;20217;-68
2021/03/19 01:02:10;;;;;;;27.20;12.77;;;;;;;;;;5034656;28;20503;-69
2021/03/19 01:04:35;;;;;;;27.10;12.83;;;;;;;;;;5026903;28;20863;-69
2021/03/19 01:07:01;;;;;;;24.93;12.27;;;;;;;;;;5028972;28;20198;-69
2021/03/19 01:09:26;;;;;;;22.97;12.57;;;;;;;;;;5026340;28;20205;-69
2021/03/19 01:11:52;;;;;;;25.93;12.67;;;;;;;;;;5033158;28;20207;-68
2021/03/19 01:14:17;;;;;;;27.47;12.43;;;;;;;;;;5023736;28;20185;-68
2021/03/19 01:16:43;;;;;;;24.73;13.00;;;;;;;;;;5033078;28;20189;-68
2021/03/19 01:19:09;;;;;;;25.03;13.90;;;;;;;;;;5026436;28;20649;-69
2021/03/19 01:21:34;;;;;;;27.90;12.43;;;;;;;;;;5034396;28;20670;-68
2021/03/19 01:24:00;;;;;;;26.93;13.13;;;;;;;;;;5034572;28;20193;-69
2021/03/19 01:26:25;;;;;;;24.47;13.70;;;;;;;;;;5023496;28;20547;-69
2021/03/19 01:28:51;;;;;;;23.73;13.40;;;;;;;;;;5035096;28;20189;-68
2021/03/19 01:31:16;;;;;;;24.80;13.87;;;;;;;;;;5023721;28;20220;-68
2021/03/19 01:33:42;;;;;;;28.53;14.13;;;;;;;;;;5034772;28;20201;-68
2021/03/19 01:36:08;;;;;;;27.03;12.70;;;;;;;;;;5023001;28;20247;-68
2021/03/19 01:38:35;;;;;;;29.47;12.87;;;;;;;;;;5030191;28;20189;-68
2021/03/19 01:41:01;;;;;;;28.23;14.07;;;;;;;;;;5023669;28;20553;-68
2021/03/19 01:43:53;;;;;;;24.13;13.60;;;;;;;;;;5033664;28;20423;-68
2021/03/19 01:46:56;;;;;;;30.43;13.90;;;;;;;;;;5023368;28;20217;-68
2021/03/19 01:49:59;;;;;;;28.50;12.73;;;;;;;;;;5033147;28;20193;-68
2021/03/19 01:53:03;;;;;;;36.90;14.20;;;;;;;;;;5021736;28;20600;-68
2021/03/19 01:56:07;;;;;;;27.60;13.80;;;;;;;;;;5034217;28;20235;-68
2021/03/19 01:59:09;;;;;;;29.47;13.93;;;;;;;;;;5030700;28;20204;-68
2021/03/19 02:02:12;;;;;;;30.13;13.83;;;;;;;;;;5025405;28;20562;-68
2021/03/19 02:05:15;;;;;;;26.80;13.23;;;;;;;;;;5033200;28;20874;-68
2021/03/19 02:08:18;;;;;;;29.00;14.73;;;;;;;;;;5023054;28;20276;-68
2021/03/19 02:11:21;;;;;;;33.87;14.57;;;;;;;;;;5033670;28;20189;-68
2021/03/19 02:14:24;;;;;;;29.53;14.83;;;;;;;;;;5025995;28;20278;-68
2021/03/19 02:17:26;;;;;;;30.70;14.07;;;;;;;;;;5032706;28;20739;-68
2021/03/19 02:20:29;;;;;;;34.00;14.47;;;;;;;;;;5034207;28;20189;-68
2021/03/19 02:23:32;;;;;;;37.20;17.80;;;;;;;;;;5024342;28;20203;-68
2021/03/19 02:26:35;;;;;;;36.23;15.40;;;;;;;;;;5032881;28;20209;-68
2021/03/19 02:29:37;;;;;;;36.03;15.10;;;;;;;;;;5025720;28;20201;-68
2021/03/19 02:32:08;;;;;;;37.30;15.17;;;;;;;;;;5034840;28;20185;-68
2021/03/19 02:34:40;;;;;;;34.30;14.70;;;;;;;;;;5027934;28;20232;-68
2021/03/19 02:37:09;;;;;;;39.00;16.67;;;;;;;;;;5033464;28;20243;-68
2021/03/19 02:39:34;;;;;;;34.57;16.27;;;;;;;;;;5028187;28;20204;-68
2021/03/19 02:42:01;;;;;;;35.03;17.63;;;;;;;;;;5037159;28;20190;-68
2021/03/19 02:44:26;;;;;;;40.57;17.57;;;;;;;;;;5029604;28;20237;-68
2021/03/19 02:46:52;;;;;;;36.40;16.67;;;;;;;;;;5036478;28;20209;-68
2021/03/19 02:49:17;;;;;;;35.10;16.87;;;;;;;;;;5024646;28;20227;-68
2021/03/19 02:51:42;;;;;;;37.40;17.03;;;;;;;;;;5036040;28;20189;-68
2021/03/19 02:54:08;;;;;;;35.13;16.33;;;;;;;;;;5027543;28;20191;-68
2021/03/19 02:56:33;;;;;;;39.47;17.50;;;;;;;;;;5037172;28;20193;-68
2021/03/19 02:58:58;;;;;;;42.10;17.67;;;;;;;;;;5036125;28;20248;-68
2021/03/19 03:01:24;;;;;;;38.70;17.27;;;;;;;;;;5027451;28;20190;-68
2021/03/19 03:03:49;;;;;;;41.40;17.57;;;;;;;;;;5036331;28;20213;-68
2021/03/19 03:06:15;;;;;;;46.47;18.33;;;;;;;;;;5025787;28;20628;-68
2021/03/19 03:08:40;;;;;;;46.13;17.73;;;;;;;;;;5036426;28;20555;-68
2021/03/19 03:11:05;;;;;;;41.50;17.23;;;;;;;;;;5026098;28;20192;-68
2021/03/19 03:13:31;;;;;;;35.13;16.73;;;;;;;;;;5037529;28;20300;-68
2021/03/19 03:15:56;;;;;;;38.80;17.63;;;;;;;;;;5024987;28;20193;-68
2021/03/19 03:18:22;;;;;;;39.43;17.07;;;;;;;;;;5032166;28;20201;-68
2021/03/19 03:20:56;;;;;;;37.73;16.40;;;;;;;;;;5027659;28;20196;-68
2021/03/19 03:23:24;;;;;;;36.33;16.60;;;;;;;;;;5036405;28;20655;-68
2021/03/19 03:25:50;;;;;;;36.33;16.13;;;;;;;;;;5027571;28;20364;-68
2021/03/19 03:28:16;;;;;;;39.93;17.67;;;;;;;;;;5036403;28;20189;-68
2021/03/19 03:30:47;;;;;;;41.37;15.93;;;;;;;;;;5034336;28;20189;-68
2021/03/19 03:33:13;;;;;;;38.57;16.23;;;;;;;;;;5026074;28;20213;-68
2021/03/19 03:35:40;;;;;;;38.60;16.47;;;;;;;;;;5036134;28;20496;-68
2021/03/19 03:38:11;;;;;;;38.30;16.70;;;;;;;;;;5027871;28;20205;-68
2021/03/19 03:40:44;;;;;;;31.83;15.17;;;;;;;;;;5034715;28;20189;-68
2021/03/19 03:43:13;;;;;;;35.87;15.20;;;;;;;;;;5026061;28;20189;-68
2021/03/19 03:45:39;;;;;;;40.30;15.13;;;;;;;;;;5034842;28;20223;-68
2021/03/19 03:48:05;;;;;;;40.27;16.97;;;;;;;;;;5028665;28;20197;-68
2021/03/19 03:50:31;;;;;;;36.03;17.63;;;;;;;;;;5030295;28;20706;-68
2021/03/19 03:52:56;;;;;;;38.00;16.30;;;;;;;;;;5028679;28;20197;-68
2021/03/19 03:55:22;;;;;;;41.63;16.13;;;;;;;;;;5031732;28;20247;-68
2021/03/19 03:57:47;;;;;;;35.03;15.70;;;;;;;;;;5027916;28;20197;-68
2021/03/19 04:00:16;;;;;;;35.67;15.60;;;;;;;;;;5032717;28;20193;-68
2021/03/19 04:02:41;;;;;;;39.57;16.50;;;;;;;;;;5029872;28;20660;-68
2021/03/19 04:05:09;;;;;;;39.83;16.43;;;;;;;;;;5034101;28;20201;-68
2021/03/19 04:07:35;;;;;;;34.50;15.10;;;;;;;;;;5032846;28;20209;-68
2021/03/19 04:10:01;;;;;;;36.40;14.93;;;;;;;;;;5026240;28;20618;-68
2021/03/19 04:12:27;;;;;;;29.90;15.23;;;;;;;;;;5036223;28;20228;-68
2021/03/19 04:14:52;;;;;;;40.63;16.00;;;;;;;;;;5026361;28;20194;-68
2021/03/19 04:17:36;;;;;;;37.83;17.00;;;;;;;;;;5033107;28;20283;-68
2021/03/19 04:20:05;;;;;;;34.13;14.90;;;;;;;;;;5025547;28;20194;-68
2021/03/19 04:22:30;;;;;;;34.20;15.23;;;;;;;;;;5036575;28;20215;-68
2021/03/19 04:24:55;;;;;;;32.63;14.90;;;;;;;;;;5025794;28;20648;-67
2021/03/19 04:27:26;;;;;;;32.10;15.53;;;;;;;;;;5035275;28;20209;-68
2021/03/19 04:29:54;;;;;;;36.93;15.70;;;;;;;;;;5026795;28;20225;-67
2021/03/19 04:32:19;;;;;;;34.97;15.10;;;;;;;;;;5034790;28;20205;-67
2021/03/19 04:34:45;;;;;;;42.03;15.00;;;;;;;;;;5027112;28;20251;-67
2021/03/19 04:37:11;;;;;;;43.20;16.77;;;;;;;;;;5034856;28;20198;-67
2021/03/19 04:39:42;;;;;;;33.93;15.33;;;;;;;;;;5027031;28;20305;-68
2021/03/19 04:42:08;;;;;;;40.23;15.40;;;;;;;;;;5033836;28;20248;-67
2021/03/19 04:44:36;;;;;;;35.07;15.43;;;;;;;;;;5032927;28;20320;-68
2021/03/19 04:47:02;;;;;;;34.83;15.53;;;;;;;;;;5027113;28;20263;-67
2021/03/19 04:49:27;;;;;;;35.53;15.13;;;;;;;;;;5032858;28;20231;-68
2021/03/19 04:51:54;;;;;;;36.53;15.73;;;;;;;;;;5027559;28;20755;-68
2021/03/19 04:54:19;;;;;;;32.37;15.03;;;;;;;;;;5034136;28;20755;-68
2021/03/19 04:56:45;;;;;;;30.53;14.67;;;;;;;;;;5026263;28;20223;-68
2021/03/19 04:59:10;;;;;;;37.10;14.73;;;;;;;;;;5029178;28;20250;-68
2021/03/19 05:01:57;;;;;;;30.50;14.00;;;;;;;;;;5022948;28;20197;-68
2021/03/19 05:04:24;;;;;;;32.70;13.83;;;;;;;;;;5032658;28;20266;-67
2021/03/19 05:06:52;;;;;;;30.00;14.10;;;;;;;;;;5024392;28;20224;-68
2021/03/19 05:09:18;;;;;;;34.67;14.37;;;;;;;;;;5033013;28;20694;-68
2021/03/19 05:11:43;;;;;;;39.57;14.73;;;;;;;;;;5026093;28;20189;-68
2021/03/19 05:14:09;;;;;;;35.43;14.13;;;;;;;;;;5028361;28;20189;-68
2021/03/19 05:16:34;;;;;;;35.77;14.47;;;;;;;;;;5026736;28;20255;-69
2021/03/19 05:19:00;;;;;;;43.50;15.37;;;;;;;;;;5032287;28;20193;-68
2021/03/19 05:21:25;;;;;;;41.27;14.93;;;;;;;;;;5035772;28;20319;-68
2021/03/19 05:23:51;;;;;;;37.03;14.53;;;;;;;;;;5023192;28;20201;-68
2021/03/19 05:26:16;;;;;;;33.93;14.20;;;;;;;;;;5031743;28;20220;-68
2021/03/19 05:28:42;;;;;;;35.13;14.70;;;;;;;;;;5024938;28;20224;-68
2021/03/19 05:31:08;;;;;;;29.00;13.17;;;;;;;;;;5035415;28;20188;-68
2021/03/19 05:33:51;;;;;;;36.17;12.87;;;;;;;;;;5024666;28;20185;-68
2021/03/19 05:36:21;;;;;;;37.77;13.63;;;;;;;;;;5032505;28;20181;-68
2021/03/19 05:38:46;;;;;;;31.37;13.67;;;;;;;;;;5023122;28;20234;-68
2021/03/19 05:41:13;;;;;;;34.73;14.37;;;;;;;;;;5033115;28;20186;-68
2021/03/19 05:43:50;;;;;;;26.93;13.40;;;;;;;;;;5024532;28;20233;-68
2021/03/19 05:46:26;;;;;;;33.90;13.93;;;;;;;;;;5034108;28;20387;-68
2021/03/19 05:48:59;;;;;;;27.33;13.50;;;;;;;;;;5023799;28;20576;-68
2021/03/19 05:51:40;;;;;;;27.63;13.10;;;;;;;;;;5033859;28;20259;-68
2021/03/19 05:54:20;;;;;;;30.37;14.07;;;;;;;;;;5025105;28;20553;-68
2021/03/19 05:56:47;;;;;;;36.80;13.83;;;;;;;;;;5030641;28;20381;-68
2021/03/19 05:59:13;;;;;;;29.43;13.87;;;;;;;;;;5020643;28;20234;-68
2021/03/19 06:01:39;;;;;;;40.63;15.60;;;;;;;;;;5031823;28;20200;-67
2021/03/19 06:04:06;;;;;;;45.10;16.17;;;;;;;;;;5024641;28;20221;-67
2021/03/19 06:06:44;;;;;;;34.40;16.33;;;;;;;;;;5030314;28;20247;-67
2021/03/19 06:09:41;;;;;;;39.73;16.43;;;;;;;;;;5031118;28;20651;-67
2021/03/19 06:12:12;;;;;;;43.17;16.37;;;;;;;;;;5029462;28;20205;-67
2021/03/19 06:14:49;;;;;;;39.57;16.30;;;;;;;;;;5026387;28;20196;-67
2021/03/19 06:17:21;;;;;;;35.60;16.43;;;;;;;;;;5030708;28;20640;-67
2021/03/19 06:20:07;;;;;;;40.57;17.03;;;;;;;;;;5033072;28;20764;-67
2021/03/19 06:22:38;;;;;;;39.73;16.23;;;;;;;;;;5031728;28;20193;-67
2021/03/19 06:25:16;;;;;;;44.23;16.77;;;;;;;;;;5029085;28;20181;-67
2021/03/19 06:27:49;;;;;;;36.30;16.97;;;;;;;;;;5029993;28;20304;-67
2021/03/19 06:30:42;;;;;;;39.87;18.27;;;;;;;;;;5032678;28;21188;-67
2021/03/19 06:33:13;;;;;;;40.30;17.20;;;;;;;;;;5025258;28;20201;-68
2021/03/19 06:35:43;;;;;;;41.40;17.73;;;;;;;;;;5029784;28;20538;-67
2021/03/19 06:38:39;;;;;;;39.50;17.93;;;;;;;;;;5024758;28;20314;-67
2021/03/19 06:41:18;;;;;;;41.30;18.77;;;;;;;;;;5025882;28;20194;-68
2021/03/19 06:43:44;;;;;;;49.33;19.90;;;;;;;;;;5029525;28;20253;-68
2021/03/19 06:46:17;;;;;;;46.03;20.97;;;;;;;;;;5029424;28;20517;-68
2021/03/19 06:48:54;;;;;;;43.37;20.13;;;;;;;;;;5025617;28;20585;-68
2021/03/19 06:51:32;;;;;;;48.10;19.73;;;;;;;;;;5032367;28;20192;-68
2021/03/19 06:54:04;;;;;;;42.90;19.87;;;;;;;;;;5026404;28;20272;-68
2021/03/19 06:56:30;;;;;;;46.70;20.60;;;;;;;;;;5033892;28;20264;-68
2021/03/19 06:58:56;;;;;;;50.23;20.47;;;;;;;;;;5024078;28;20235;-68
2021/03/19 07:01:37;;;;;;;48.33;20.57;;;;;;;;;;5032596;28;20193;-68
2021/03/19 07:04:58;;;;;;;53.97;21.50;;;;;;;;;;5020331;28;20558;-68
2021/03/19 07:07:46;;;;;;;51.27;20.43;;;;;;;;;;4988427;28;20223;-68
2021/03/19 07:10:47;;;;;;;46.33;20.27;;;;;;;;;;5028108;28;20225;-68
2021/03/19 07:13:30;;;;;;;53.43;20.90;;;;;;;;;;5004340;28;20190;-68
2021/03/19 07:16:21;;;;;;;45.83;22.17;;;;;;;;;;5033850;28;20193;-68
2021/03/19 07:19:05;;;;;;;54.90;21.93;;;;;;;;;;5018205;28;20900;-68
2021/03/19 07:22:01;;;;;;;54.73;23.57;;;;;;;;;;5034081;28;20208;-69
2021/03/19 07:24:29;;;;;;;50.40;23.17;;;;;;;;;;5028754;28;20251;-68
2021/03/19 07:27:21;;;;;;;50.10;23.90;;;;;;;;;;5034994;28;20224;-68
2021/03/19 07:30:23;;;;;;;50.77;23.70;;;;;;;;;;5028156;28;20221;-68
2021/03/19 07:33:23;;;;;;;50.90;23.80;;;;;;;;;;5033422;28;20582;-68
2021/03/19 07:36:05;;;;;;;49.63;23.13;;;;;;;;;;5024118;28;20194;-69
2021/03/19 07:38:45;;;;;;;49.00;22.90;;;;;;;;;;5030741;28;20336;-68
2021/03/19 07:41:31;;;;;;;45.83;24.60;;;;;;;;;;5022716;28;20193;-68
2021/03/19 07:44:22;;;;;;;40.93;22.87;;;;;;;;;;5034478;28;20222;-69
2021/03/19 07:46:59;;;;;;;54.33;24.70;;;;;;;;;;5026594;28;20213;-69
2021/03/19 07:49:37;;;;;;;43.63;23.70;;;;;;;;;;5033700;28;20196;-69
2021/03/19 07:52:23;;;;;;;44.80;22.20;;;;;;;;;;5025880;28;20185;-69
2021/03/19 07:55:06;;;;;;;41.37;22.20;;;;;;;;;;5033721;28;20189;-69
2021/03/19 07:57:40;;;;;;;41.83;21.53;;;;;;;;;;5032699;28;20189;-69
2021/03/19 08:00:18;;;;;;;44.00;21.13;;;;;;;;;;5035388;28;20185;-69
2021/03/19 08:03:05;;;;;;;43.63;22.33;;;;;;;;;;5030188;28;20251;-69
2021/03/19 08:05:40;;;;;;;40.83;21.83;;;;;;;;;;5033052;28;20181;-69
2021/03/19 08:08:11;;;;;;;44.17;21.53;;;;;;;;;;5033199;28;20272;-69
2021/03/19 08:11:14;;;;;;;37.87;19.57;;;;;;;;;;5032385;28;20185;-70
2021/03/19 08:14:17;;;;;;;30.80;16.30;;;;;;;;;;5033748;28;20283;-69
2021/03/19 08:16:51;;;;;;;31.23;15.57;;;;;;;;;;5012656;28;20173;-69
2021/03/19 08:19:28;;;;;;;26.23;14.27;;;;;;;;;;5003666;28;20194;-69
2021/03/19 08:22:09;;;;;;;25.43;12.90;;;;;;;;;;5015222;28;20221;-69
2021/03/19 08:24:56;;;;;;;24.60;12.23;;;;;;;;;;5035134;28;20182;-69
2021/03/19 08:27:50;;;;;;;21.77;10.63;;;;;;;;;;5026990;28;20599;-69
2021/03/19 08:30:37;;;;;;;19.43;10.47;;;;;;;;;;5036821;28;20630;-70
2021/03/19 08:33:43;;;;;;;19.40;9.37;;;;;;;;;;5031282;28;20273;-70
2021/03/19 08:36:25;;;;;;;18.47;9.07;;;;;;;;;;5037907;28;20301;-69
2021/03/19 08:38:55;;;;;;;13.43;6.50;;;;;;;;;;5028038;28;20652;-70
2021/03/19 08:41:27;;;;;;;11.50;6.57;;;;;;;;;;5038377;28;20201;-72
2021/03/19 08:43:55;;;;;;;13.10;6.87;;;;;;;;;;5033264;28;20229;-71
2021/03/19 08:46:45;;;;;;;18.10;7.07;;;;;;;;;;5038816;28;20563;-70
2021/03/19 08:49:15;;;;;;;14.60;6.70;;;;;;;;;;5033271;28;20201;-70
2021/03/19 08:51:45;;;;;;;13.27;7.20;;;;;;;;;;5039106;28;20611;-70
2021/03/19 08:54:18;;;;;;;12.40;6.27;;;;;;;;;;5025890;28;20209;-71
2021/03/19 08:56:50;;;;;;;10.90;6.13;;;;;;;;;;5036587;28;20186;-70
2021/03/19 08:59:31;;;;;;;13.43;6.83;;;;;;;;;;5033858;28;20189;-70
2021/03/19 09:02:02;;;;;;;13.67;5.87;;;;;;;;;;5037808;28;20185;-70
2021/03/19 09:04:57;;;;;;;13.97;5.30;;;;;;;;;;5029080;28;20295;-70
2021/03/19 09:07:35;;;;;;;9.67;4.87;;;;;;;;;;5040265;28;20221;-71
2021/03/19 09:10:13;;;;;;;11.23;5.33;;;;;;;;;;5031920;28;20201;-71
2021/03/19 09:12:57;;;;;;;11.23;6.00;;;;;;;;;;5035939;28;20629;-71
2021/03/19 09:15:22;;;;;;;12.60;7.00;;;;;;;;;;5027389;28;20601;-71
2021/03/19 09:17:53;;;;;;;15.10;7.97;;;;;;;;;;5036555;28;20321;-71
2021/03/19 09:20:33;;;;;;;15.10;7.90;;;;;;;;;;5026249;28;20201;-71
2021/03/19 09:23:07;;;;;;;17.13;7.60;;;;;;;;;;5041620;28;20193;-71
2021/03/19 09:25:45;;;;;;;15.33;7.13;;;;;;;;;;5024393;28;20215;-71
2021/03/19 09:28:30;;;;;;;13.40;6.90;;;;;;;;;;5035522;28;20174;-71
2021/03/19 09:31:12;;;;;;;13.77;6.63;;;;;;;;;;5032089;28;20204;-71
2021/03/19 09:33:44;;;;;;;9.07;5.83;;;;;;;;;;5035037;28;20269;-71
2021/03/19 09:36:47;;;;;;;11.70;5.00;;;;;;;;;;5032823;28;20200;-71
2021/03/19 09:39:54;;;;;;;9.27;4.90;;;;;;;;;;5041545;28;20208;-71
2021/03/19 09:42:22;;;;;;;9.27;4.67;;;;;;;;;;5030236;28;20524;-71
2021/03/19 09:44:53;;;;;;;9.23;4.90;;;;;;;;;;5034053;28;20275;-71
2021/03/19 09:47:25;;;;;;;7.40;3.87;;;;;;;;;;5020287;28;20292;-71
2021/03/19 09:50:08;;;;;;;5.70;3.50;;;;;;;;;;5037846;28;20278;-71
2021/03/19 09:52:34;;;;;;;7.53;3.90;;;;;;;;;;5028003;28;20205;-71
2021/03/19 09:55:00;;;;;;;6.53;3.53;;;;;;;;;;5034343;28;20258;-71
2021/03/19 09:57:29;;;;;;;6.20;3.60;;;;;;;;;;5031598;28;20186;-71
2021/03/19 09:59:58;;;;;;;4.57;2.57;;;;;;;;;;5035811;28;20190;-71
2021/03/19 10:02:31;;;;;;;7.87;3.53;;;;;;;;;;5023003;28;20598;-71
2021/03/19 10:05:15;;;;;;;6.97;2.80;;;;;;;;;;5035578;28;20209;-71
2021/03/19 10:07:59;;;;;;;6.50;3.03;;;;;;;;;;5027426;28;20221;-71
2021/03/19 10:10:38;;;;;;;5.27;2.47;;;;;;;;;;5041897;28;20276;-71
2021/03/19 10:13:18;;;;;;;6.43;2.40;;;;;;;;;;5034163;28;20193;-71
2021/03/19 10:15:47;;;;;;;4.43;2.23;;;;;;;;;;5032462;28;20200;-71
2021/03/19 10:18:35;;;;;;;3.90;2.40;;;;;;;;;;5029393;28;20200;-72
2021/03/19 10:21:11;;;;;;;4.67;2.20;;;;;;;;;;5041167;28;20729;-71
2021/03/19 10:23:43;;;;;;;9.13;2.43;;;;;;;;;;5031276;28;20194;-71
2021/03/19 10:26:18;;;;;;;10.43;2.40;;;;;;;;;;5036367;28;20354;-71
2021/03/19 10:28:49;;;;;;;5.10;2.33;;;;;;;;;;5027585;28;20215;-71
2021/03/19 10:31:20;;;;;;;4.60;2.20;;;;;;;;;;5037216;28;20220;-71
2021/03/19 10:34:05;;;;;;;6.60;2.20;;;;;;;;;;5032236;28;20188;-71
2021/03/19 10:36:53;;;;;;;4.07;2.10;;;;;;;;;;5031686;28;20607;-71
2021/03/19 10:39:43;;;;;;;3.50;2.03;;;;;;;;;;5033642;28;20200;-71
2021/03/19 10:42:20;;;;;;;7.30;2.27;;;;;;;;;;5033924;28;20190;-72
2021/03/19 10:45:00;;;;;;;5.70;2.00;;;;;;;;;;5027198;28;20228;-72
2021/03/19 10:47:35;;;;;;;4.63;2.10;;;;;;;;;;5038579;28;20208;-71
2021/03/19 10:50:08;;;;;;;6.93;2.03;;;;;;;;;;5035641;28;20640;-72
2021/03/19 10:53:20;;;;;;;3.73;2.00;;;;;;;;;;5040939;28;20195;-70
2021/03/19 10:55:50;;;;;;;6.03;2.07;;;;;;;;;;5027876;28;20205;-70
2021/03/19 10:58:21;;;;;;;3.07;2.10;;;;;;;;;;5043215;28;20194;-71
2021/03/19 11:00:53;;;;;;;6.40;2.00;;;;;;;;;;5035219;28;20662;-71
2021/03/19 11:03:30;;;;;;;3.43;1.93;;;;;;;;;;5039424;28;20324;-71
2021/03/19 11:05:59;;;;;;;2.83;1.40;;;;;;;;;;5031690;28;20283;-70
2021/03/19 11:08:25;;;;;;;4.90;1.70;;;;;;;;;;5036103;28;20272;-70
2021/03/19 11:10:53;;;;;;;2.97;1.63;;;;;;;;;;5029969;28;20304;-70
2021/03/19 11:13:24;;;;;;;3.00;1.60;;;;;;;;;;5036285;28;20187;-70
2021/03/19 11:15:53;;;;;;;3.53;1.50;;;;;;;;;;5031685;28;20190;-70
2021/03/19 11:18:26;;;;;;;2.93;1.27;;;;;;;;;;5038990;28;20193;-70
2021/03/19 11:21:00;;;;;;;4.67;1.53;;;;;;;;;;5029241;28;20228;-70
2021/03/19 11:23:41;;;;;;;4.10;1.40;;;;;;;;;;5035765;28;20182;-70
2021/03/19 11:26:29;;;;;;;2.90;1.40;;;;;;;;;;5029373;28;23657;-70
2021/03/19 11:29:16;;;;;;;4.43;1.60;;;;;;;;;;5038435;28;20530;-70
2021/03/19 11:32:06;;;;;;;4.17;1.90;;;;;;;;;;5033420;28;20193;-70
2021/03/19 11:34:36;;;;;;;2.60;1.00;;;;;;;;;;5034362;28;20186;-69
2021/03/19 11:37:25;;;;;;;2.83;1.20;;;;;;;;;;5030796;28;20244;-71
2021/03/19 11:39:54;;;;;;;3.10;1.20;;;;;;;;;;5039755;28;20187;-70
2021/03/19 11:42:26;;;;;;;2.77;0.83;;;;;;;;;;5032270;28;20200;-70
2021/03/19 11:44:56;;;;;;;3.60;1.00;;;;;;;;;;5036846;28;20230;-70
2021/03/19 11:47:30;;;;;;;2.20;1.00;;;;;;;;;;5032597;28;20228;-70
2021/03/19 11:50:09;;;;;;;1.17;0.80;;;;;;;;;;5045338;28;20596;-71
2021/03/19 11:52:34;;;;;;;3.07;0.90;;;;;;;;;;5030919;28;20200;-70
2021/03/19 11:55:00;;;;;;;1.87;0.97;;;;;;;;;;5039241;28;20189;-70
2021/03/19 11:57:25;;;;;;;1.37;1.00;;;;;;;;;;5033313;28;20217;-71
2021/03/19 11:59:51;;;;;;;1.93;0.90;;;;;;;;;;5040466;28;20649;-70
2021/03/19 12:02:44;;;;;;;1.77;1.20;;;;;;;;;;5036169;28;20654;-71
2021/03/19 12:05:12;;;;;;;2.50;1.10;;;;;;;;;;5038917;28;20224;-70
2021/03/19 12:07:38;;;;;;;2.67;1.10;;;;;;;;;;5039008;28;20236;-70
2021/03/19 12:10:06;;;;;;;1.10;0.93;;;;;;;;;;5031828;28;20645;-70
2021/03/19 12:12:31;;;;;;;3.80;1.60;;;;;;;;;;5036512;28;20217;-71
2021/03/19 12:14:57;;;;;;;2.87;1.03;;;;;;;;;;5031253;28;20244;-70
2021/03/19 12:17:23;;;;;;;3.77;1.00;;;;;;;;;;5034794;28;20174;-70
2021/03/19 12:19:49;;;;;;;2.37;1.10;;;;;;;;;;5026248;28;20277;-70
2021/03/19 12:22:15;;;;;;;2.90;1.10;;;;;;;;;;5039892;28;20185;-70
2021/03/19 12:24:41;;;;;;;2.60;0.90;;;;;;;;;;5026942;28;20229;-70
2021/03/19 12:27:07;;;;;;;1.63;0.90;;;;;;;;;;5039775;28;20611;-69
2021/03/19 12:29:32;;;;;;;1.57;1.00;;;;;;;;;;5027182;28;20192;-70
2021/03/19 12:31:57;;;;;;;2.57;1.10;;;;;;;;;;5042269;28;20185;-70
2021/03/19 12:34:24;;;;;;;1.50;0.73;;;;;;;;;;5031097;28;21622;-70
2021/03/19 12:36:50;;;;;;;3.20;1.10;;;;;;;;;;5037411;28;20178;-71
2021/03/19 12:39:18;;;;;;;1.70;1.00;;;;;;;;;;5041299;28;20186;-70
2021/03/19 12:41:43;;;;;;;3.27;1.00;;;;;;;;;;5031300;28;20197;-70
2021/03/19 12:44:09;;;;;;;1.13;0.80;;;;;;;;;;5033021;28;20225;-70
2021/03/19 12:46:38;;;;;;;2.97;0.93;;;;;;;;;;5029579;28;20202;-70
2021/03/19 12:49:04;;;;;;;3.37;1.00;;;;;;;;;;5038770;28;20213;-70
2021/03/19 12:51:30;;;;;;;2.40;0.90;;;;;;;;;;5027704;28;20688;-70
2021/03/19 12:53:55;;;;;;;1.03;0.70;;;;;;;;;;5037931;28;20280;-71
2021/03/19 12:56:21;;;;;;;2.57;0.90;;;;;;;;;;5029320;28;20555;-71
2021/03/19 12:58:46;;;;;;;4.23;1.03;;;;;;;;;;5039767;28;20185;-70
2021/03/19 13:01:13;;;;;;;3.07;0.70;;;;;;;;;;5026307;28;20614;-70
2021/03/19 13:03:38;;;;;;;1.83;0.70;;;;;;;;;;5038672;28;20847;-71
2021/03/19 13:06:04;;;;;;;1.10;0.70;;;;;;;;;;5029084;28;21671;-71
2021/03/19 13:08:29;;;;;;;1.17;0.60;;;;;;;;;;5041319;28;20190;-70
2021/03/19 13:10:55;;;;;;;1.50;0.80;;;;;;;;;;5035963;28;20201;-70
2021/03/19 13:13:20;;;;;;;1.77;0.87;;;;;;;;;;5026912;28;20362;-71
2021/03/19 13:15:46;;;;;;;1.83;0.90;;;;;;;;;;5037803;28;20664;-70
2021/03/19 13:18:13;;;;;;;2.70;0.70;;;;;;;;;;5036734;28;20197;-70
2021/03/19 13:20:40;;;;;;;1.45;1.05;;;;;;;;;;5034201;28;20185;-70
2021/03/19 13:23:07;;;;;;;2.28;0.93;;;;;;;;;;5025217;28;20194;-70
2021/03/19 13:25:35;;;;;;;3.17;0.90;;;;;;;;;;5040256;28;20549;-70
2021/03/19 13:28:01;;;;;;;2.30;0.80;;;;;;;;;;5034655;28;20217;-70
2021/03/19 13:30:29;;;;;;;2.53;1.00;;;;;;;;;;5040906;28;20321;-70
2021/03/19 13:32:56;;;;;;;2.47;0.97;;;;;;;;;;5031682;28;20197;-70
2021/03/19 13:35:27;;;;;;;3.90;1.20;;;;;;;;;;5037252;28;20209;-70
2021/03/19 13:37:53;;;;;;;1.40;1.00;;;;;;;;;;5024103;28;20523;-70
2021/03/19 13:40:22;;;;;;;2.90;1.00;;;;;;;;;;5030683;28;20194;-70
2021/03/19 13:42:47;;;;;;;3.37;1.10;;;;;;;;;;5033285;28;20359;-70
2021/03/19 13:45:14;;;;;;;2.33;1.03;;;;;;;;;;5025589;28;20304;-69
2021/03/19 13:47:39;;;;;;;2.58;0.93;;;;;;;;;;5031255;28;20713;-70
2021/03/19 13:50:06;;;;;;;1.50;1.10;;;;;;;;;;5021250;28;20247;-70
2021/03/19 13:52:32;;;;;;;3.88;0.98;;;;;;;;;;4336773;28;10000819;-70
2021/03/19 13:54:58;;;;;;;2.03;0.93;;;;;;;;;;5021636;28;20193;-69
2021/03/19 13:57:27;;;;;;;1.60;1.00;;;;;;;;;;5030579;28;20189;-69
2021/03/19 13:59:52;;;;;;;2.40;1.10;;;;;;;;;;5022666;28;20258;-70
2021/03/19 14:02:17;;;;;;;1.00;0.90;;;;;;;;;;5029527;28;20645;-70
2021/03/19 14:04:43;;;;;;;2.87;1.60;;;;;;;;;;5025918;28;20227;-70
2021/03/19 14:07:08;;;;;;;2.37;1.13;;;;;;;;;;5032858;28;20221;-70
2021/03/19 14:09:33;;;;;;;3.67;1.70;;;;;;;;;;5024979;28;20190;-70
2021/03/19 14:11:59;;;;;;;3.87;1.30;;;;;;;;;;5032110;28;20237;-70
2021/03/19 14:14:25;;;;;;;2.97;1.30;;;;;;;;;;5029535;28;20281;-70
2021/03/19 14:16:50;;;;;;;2.30;1.00;;;;;;;;;;5022528;28;20185;-69
2021/03/19 14:19:16;;;;;;;2.90;1.33;;;;;;;;;;5037732;28;20232;-70
2021/03/19 14:21:42;;;;;;;1.93;0.90;;;;;;;;;;5023235;28;20186;-70
2021/03/19 14:24:08;;;;;;;2.47;0.97;;;;;;;;;;5036306;28;20182;-69
2021/03/19 14:26:33;;;;;;;2.03;1.10;;;;;;;;;;5029703;28;20208;-70
2021/03/19 14:28:59;;;;;;;4.70;1.00;;;;;;;;;;5043335;28;20192;-70
2021/03/19 14:31:27;;;;;;;3.50;1.10;;;;;;;;;;5026630;28;20193;-69
2021/03/19 14:33:53;;;;;;;2.33;0.70;;;;;;;;;;5034669;28;20202;-70
2021/03/19 14:36:20;;;;;;;1.77;0.90;;;;;;;;;;5027056;28;20549;-71
2021/03/19 14:38:45;;;;;;;2.93;0.80;;;;;;;;;;5036664;28;20288;-69
2021/03/19 14:41:11;;;;;;;2.13;0.60;;;;;;;;;;5026803;28;20193;-70
2021/03/19 14:43:37;;;;;;;2.80;0.70;;;;;;;;;;5039961;28;20228;-69
2021/03/19 14:46:03;;;;;;;1.60;0.90;;;;;;;;;;5028308;28;20210;-70
2021/03/19 14:48:31;;;;;;;1.17;0.70;;;;;;;;;;5042411;28;20177;-69
2021/03/19 14:51:03;;;;;;;2.30;0.80;;;;;;;;;;5039850;28;20178;-70
2021/03/19 14:53:28;;;;;;;0.83;0.50;;;;;;;;;;5032256;28;20583;-70
2021/03/19 14:55:54;;;;;;;2.67;0.60;;;;;;;;;;5041559;28;20272;-70
2021/03/19 14:58:20;;;;;;;0.83;0.70;;;;;;;;;;5025923;28;20221;-69
2021/03/19 15:00:47;;;;;;;2.73;0.70;;;;;;;;;;5030334;28;20263;-69
2021/03/19 15:03:13;;;;;;;0.77;0.60;;;;;;;;;;5015186;28;20611;-70